sensor_id;sensor_type;location;lat;lon;timestamp;P1;durP1;ratioP1;P2;durP2;ratioP2
13425;SDS011;6785;57.918;12.530;2023-05-29T00:00:03;16.07;;;4.70;;
13425;SDS011;6785;57.918;12.530;2023-05-29T00:02:33;25.37;;;4.63;;
13425;SDS011;6785;57.918;12.530;2023-05-29T00:04:59;18.60;;;4.73;;
13425;SDS011;6785;57.918;12.530;2023-05-29T00:07:28;19.93;;;4.23;;
13425;SDS011;6785;57.918;12.530;2023-05-29T00:09:55;20.17;;;4.97;;
13425;SDS011;6785;57.918;12.530;2023-05-29T00:12:21;21.13;;;4.53;;
13425;SDS011;6785;57.918;12.530;2023-05-29T00:14:48;19.17;;;5.20;;
13425;SDS011;6785;57.918;12.530;2023-05-29T00:17:16;21.10;;;4.70;;
13425;SDS011;6785;57.918;12.530;2023-05-29T00:19:44;21.13;;;4.50;;
13425;SDS011;6785;57.918;12.530;2023-05-29T00:22:10;18.37;;;4.30;;
13425;SDS011;6785;57.918;12.530;2023-05-29T00:24:37;17.77;;;5.07;;
13425;SDS011;6785;57.918;12.530;2023-05-29T00:27:04;18.67;;;4.13;;
13425;SDS011;6785;57.918;12.530;2023-05-29T00:29:31;20.17;;;4.80;;
13425;SDS011;6785;57.918;12.530;2023-05-29T00:31:58;21.00;;;5.47;;
13425;SDS011;6785;57.918;12.530;2023-05-29T00:34:24;19.67;;;4.53;;
13425;SDS011;6785;57.918;12.530;2023-05-29T00:36:52;23.77;;;5.13;;
13425;SDS011;6785;57.918;12.530;2023-05-29T00:39:20;16.23;;;4.03;;
13425;SDS011;6785;57.918;12.530;2023-05-29T00:41:47;22.27;;;4.33;;
13425;SDS011;6785;57.918;12.530;2023-05-29T00:44:15;22.73;;;4.93;;
13425;SDS011;6785;57.918;12.530;2023-05-29T00:46:43;22.43;;;4.77;;
13425;SDS011;6785;57.918;12.530;2023-05-29T00:49:09;28.47;;;4.87;;
13425;SDS011;6785;57.918;12.530;2023-05-29T00:51:37;21.23;;;4.47;;
13425;SDS011;6785;57.918;12.530;2023-05-29T00:54:07;23.50;;;5.00;;
13425;SDS011;6785;57.918;12.530;2023-05-29T00:56:34;21.33;;;4.53;;
13425;SDS011;6785;57.918;12.530;2023-05-29T00:59:01;19.97;;;4.43;;
13425;SDS011;6785;57.918;12.530;2023-05-29T01:01:28;18.30;;;4.03;;
13425;SDS011;6785;57.918;12.530;2023-05-29T01:03:57;18.10;;;4.83;;
13425;SDS011;6785;57.918;12.530;2023-05-29T01:06:27;20.03;;;3.97;;
13425;SDS011;6785;57.918;12.530;2023-05-29T01:08:53;24.30;;;4.60;;
13425;SDS011;6785;57.918;12.530;2023-05-29T01:11:24;21.83;;;5.03;;
13425;SDS011;6785;57.918;12.530;2023-05-29T01:13:58;22.23;;;4.37;;
13425;SDS011;6785;57.918;12.530;2023-05-29T01:16:31;19.33;;;4.43;;
13425;SDS011;6785;57.918;12.530;2023-05-29T01:19:08;18.13;;;4.53;;
13425;SDS011;6785;57.918;12.530;2023-05-29T01:21:42;22.47;;;4.23;;
13425;SDS011;6785;57.918;12.530;2023-05-29T01:24:24;21.10;;;5.13;;
13425;SDS011;6785;57.918;12.530;2023-05-29T01:26:59;19.27;;;3.97;;
13425;SDS011;6785;57.918;12.530;2023-05-29T01:29:29;19.40;;;5.13;;
13425;SDS011;6785;57.918;12.530;2023-05-29T01:32:00;18.23;;;4.03;;
13425;SDS011;6785;57.918;12.530;2023-05-29T01:34:28;16.67;;;3.80;;
13425;SDS011;6785;57.918;12.530;2023-05-29T01:36:55;14.50;;;3.40;;
13425;SDS011;6785;57.918;12.530;2023-05-29T01:39:21;20.63;;;3.90;;
13425;SDS011;6785;57.918;12.530;2023-05-29T01:41:49;16.10;;;3.63;;
13425;SDS011;6785;57.918;12.530;2023-05-29T01:44:18;16.77;;;3.17;;
13425;SDS011;6785;57.918;12.530;2023-05-29T01:46:46;14.37;;;3.80;;
13425;SDS011;6785;57.918;12.530;2023-05-29T01:49:14;10.37;;;3.53;;
13425;SDS011;6785;57.918;12.530;2023-05-29T01:51:42;13.93;;;3.70;;
13425;SDS011;6785;57.918;12.530;2023-05-29T01:54:09;18.50;;;4.00;;
13425;SDS011;6785;57.918;12.530;2023-05-29T01:56:36;11.27;;;2.73;;
13425;SDS011;6785;57.918;12.530;2023-05-29T01:59:03;15.20;;;3.50;;
13425;SDS011;6785;57.918;12.530;2023-05-29T02:01:32;7.53;;;2.87;;
13425;SDS011;6785;57.918;12.530;2023-05-29T02:03:58;13.93;;;3.27;;
13425;SDS011;6785;57.918;12.530;2023-05-29T02:06:25;12.83;;;3.10;;
13425;SDS011;6785;57.918;12.530;2023-05-29T02:08:52;11.03;;;2.87;;
13425;SDS011;6785;57.918;12.530;2023-05-29T02:11:19;10.23;;;2.73;;
13425;SDS011;6785;57.918;12.530;2023-05-29T02:13:46;7.57;;;2.67;;
13425;SDS011;6785;57.918;12.530;2023-05-29T02:16:13;7.67;;;3.20;;
13425;SDS011;6785;57.918;12.530;2023-05-29T02:18:41;8.80;;;2.90;;
13425;SDS011;6785;57.918;12.530;2023-05-29T02:21:08;7.97;;;2.63;;
13425;SDS011;6785;57.918;12.530;2023-05-29T02:23:35;11.33;;;2.73;;
13425;SDS011;6785;57.918;12.530;2023-05-29T02:26:01;6.97;;;2.27;;
13425;SDS011;6785;57.918;12.530;2023-05-29T02:28:28;5.83;;;2.20;;
13425;SDS011;6785;57.918;12.530;2023-05-29T02:30:55;7.87;;;2.67;;
13425;SDS011;6785;57.918;12.530;2023-05-29T02:33:21;8.53;;;2.87;;
13425;SDS011;6785;57.918;12.530;2023-05-29T02:35:50;12.37;;;2.90;;
13425;SDS011;6785;57.918;12.530;2023-05-29T02:38:16;7.30;;;2.33;;
13425;SDS011;6785;57.918;12.530;2023-05-29T02:40:44;8.67;;;2.33;;
13425;SDS011;6785;57.918;12.530;2023-05-29T02:43:11;7.13;;;2.50;;
13425;SDS011;6785;57.918;12.530;2023-05-29T02:45:39;6.10;;;2.57;;
13425;SDS011;6785;57.918;12.530;2023-05-29T02:48:05;8.07;;;2.60;;
13425;SDS011;6785;57.918;12.530;2023-05-29T02:50:32;9.07;;;2.40;;
13425;SDS011;6785;57.918;12.530;2023-05-29T02:53:01;5.23;;;2.83;;
13425;SDS011;6785;57.918;12.530;2023-05-29T02:55:27;12.23;;;2.67;;
13425;SDS011;6785;57.918;12.530;2023-05-29T02:57:57;7.13;;;2.40;;
13425;SDS011;6785;57.918;12.530;2023-05-29T03:00:25;6.93;;;2.83;;
13425;SDS011;6785;57.918;12.530;2023-05-29T03:02:53;5.20;;;2.17;;
13425;SDS011;6785;57.918;12.530;2023-05-29T03:05:20;5.30;;;2.40;;
13425;SDS011;6785;57.918;12.530;2023-05-29T03:07:47;5.10;;;2.17;;
13425;SDS011;6785;57.918;12.530;2023-05-29T03:10:15;7.57;;;2.57;;
13425;SDS011;6785;57.918;12.530;2023-05-29T03:12:42;7.83;;;2.90;;
13425;SDS011;6785;57.918;12.530;2023-05-29T03:15:09;8.43;;;2.67;;
13425;SDS011;6785;57.918;12.530;2023-05-29T03:17:37;7.17;;;2.60;;
13425;SDS011;6785;57.918;12.530;2023-05-29T03:20:04;7.60;;;2.70;;
13425;SDS011;6785;57.918;12.530;2023-05-29T03:22:32;6.60;;;2.80;;
13425;SDS011;6785;57.918;12.530;2023-05-29T03:24:59;6.90;;;2.90;;
13425;SDS011;6785;57.918;12.530;2023-05-29T03:27:28;14.10;;;3.17;;
13425;SDS011;6785;57.918;12.530;2023-05-29T03:29:55;7.40;;;3.23;;
13425;SDS011;6785;57.918;12.530;2023-05-29T03:32:22;12.13;;;2.67;;
13425;SDS011;6785;57.918;12.530;2023-05-29T03:34:49;7.87;;;2.80;;
13425;SDS011;6785;57.918;12.530;2023-05-29T03:37:16;9.20;;;2.70;;
13425;SDS011;6785;57.918;12.530;2023-05-29T03:39:43;9.50;;;3.10;;
13425;SDS011;6785;57.918;12.530;2023-05-29T03:42:09;10.60;;;2.80;;
13425;SDS011;6785;57.918;12.530;2023-05-29T03:44:37;7.23;;;2.47;;
13425;SDS011;6785;57.918;12.530;2023-05-29T03:47:04;7.63;;;3.23;;
13425;SDS011;6785;57.918;12.530;2023-05-29T03:49:33;7.37;;;3.30;;
13425;SDS011;6785;57.918;12.530;2023-05-29T03:52:00;12.90;;;2.87;;
13425;SDS011;6785;57.918;12.530;2023-05-29T03:54:27;8.83;;;3.00;;
13425;SDS011;6785;57.918;12.530;2023-05-29T03:56:53;6.83;;;2.83;;
13425;SDS011;6785;57.918;12.530;2023-05-29T03:59:20;9.00;;;3.00;;
13425;SDS011;6785;57.918;12.530;2023-05-29T04:01:48;9.57;;;2.97;;
13425;SDS011;6785;57.918;12.530;2023-05-29T04:04:15;6.07;;;2.37;;
13425;SDS011;6785;57.918;12.530;2023-05-29T04:06:42;6.07;;;2.40;;
13425;SDS011;6785;57.918;12.530;2023-05-29T04:09:08;5.43;;;2.63;;
13425;SDS011;6785;57.918;12.530;2023-05-29T04:11:35;8.00;;;2.37;;
13425;SDS011;6785;57.918;12.530;2023-05-29T04:14:03;5.90;;;1.93;;
13425;SDS011;6785;57.918;12.530;2023-05-29T04:16:30;9.17;;;2.40;;
13425;SDS011;6785;57.918;12.530;2023-05-29T04:18:58;4.73;;;2.30;;
13425;SDS011;6785;57.918;12.530;2023-05-29T04:21:25;4.53;;;2.20;;
13425;SDS011;6785;57.918;12.530;2023-05-29T04:23:52;3.23;;;1.73;;
13425;SDS011;6785;57.918;12.530;2023-05-29T04:26:19;4.37;;;1.80;;
13425;SDS011;6785;57.918;12.530;2023-05-29T04:28:49;5.73;;;2.00;;
13425;SDS011;6785;57.918;12.530;2023-05-29T04:31:17;4.50;;;1.90;;
13425;SDS011;6785;57.918;12.530;2023-05-29T04:33:47;3.40;;;1.90;;
13425;SDS011;6785;57.918;12.530;2023-05-29T04:36:15;3.50;;;2.00;;
13425;SDS011;6785;57.918;12.530;2023-05-29T04:38:42;5.47;;;2.33;;
13425;SDS011;6785;57.918;12.530;2023-05-29T04:41:10;2.27;;;1.60;;
13425;SDS011;6785;57.918;12.530;2023-05-29T04:43:37;5.50;;;1.70;;
13425;SDS011;6785;57.918;12.530;2023-05-29T04:46:05;2.40;;;1.83;;
13425;SDS011;6785;57.918;12.530;2023-05-29T04:48:32;4.33;;;1.90;;
13425;SDS011;6785;57.918;12.530;2023-05-29T04:50:59;3.27;;;2.00;;
13425;SDS011;6785;57.918;12.530;2023-05-29T04:53:27;3.37;;;1.90;;
13425;SDS011;6785;57.918;12.530;2023-05-29T04:55:55;3.07;;;1.83;;
13425;SDS011;6785;57.918;12.530;2023-05-29T04:58:21;3.47;;;1.40;;
13425;SDS011;6785;57.918;12.530;2023-05-29T05:00:50;4.67;;;1.67;;
13425;SDS011;6785;57.918;12.530;2023-05-29T05:03:17;2.50;;;1.40;;
13425;SDS011;6785;57.918;12.530;2023-05-29T05:05:43;3.13;;;1.70;;
13425;SDS011;6785;57.918;12.530;2023-05-29T05:08:10;3.53;;;1.60;;
13425;SDS011;6785;57.918;12.530;2023-05-29T05:10:38;2.57;;;1.60;;
13425;SDS011;6785;57.918;12.530;2023-05-29T05:13:05;3.37;;;1.73;;
13425;SDS011;6785;57.918;12.530;2023-05-29T05:15:32;2.73;;;1.60;;
13425;SDS011;6785;57.918;12.530;2023-05-29T05:17:59;3.30;;;1.60;;
13425;SDS011;6785;57.918;12.530;2023-05-29T05:20:25;1.53;;;1.40;;
13425;SDS011;6785;57.918;12.530;2023-05-29T05:22:52;4.63;;;1.40;;
13425;SDS011;6785;57.918;12.530;2023-05-29T05:25:19;3.97;;;1.57;;
13425;SDS011;6785;57.918;12.530;2023-05-29T05:27:47;3.53;;;1.50;;
13425;SDS011;6785;57.918;12.530;2023-05-29T05:30:14;2.23;;;1.30;;
13425;SDS011;6785;57.918;12.530;2023-05-29T05:32:40;1.50;;;1.40;;
13425;SDS011;6785;57.918;12.530;2023-05-29T05:35:07;4.23;;;1.40;;
13425;SDS011;6785;57.918;12.530;2023-05-29T05:37:36;5.30;;;1.77;;
13425;SDS011;6785;57.918;12.530;2023-05-29T05:40:03;2.97;;;1.43;;
13425;SDS011;6785;57.918;12.530;2023-05-29T05:42:31;3.17;;;1.40;;
13425;SDS011;6785;57.918;12.530;2023-05-29T05:44:59;1.17;;;1.10;;
13425;SDS011;6785;57.918;12.530;2023-05-29T05:47:26;6.90;;;1.70;;
13425;SDS011;6785;57.918;12.530;2023-05-29T05:49:53;3.90;;;1.27;;
13425;SDS011;6785;57.918;12.530;2023-05-29T05:52:20;2.73;;;1.50;;
13425;SDS011;6785;57.918;12.530;2023-05-29T05:54:48;2.60;;;1.40;;
13425;SDS011;6785;57.918;12.530;2023-05-29T05:57:14;1.57;;;1.30;;
13425;SDS011;6785;57.918;12.530;2023-05-29T05:59:41;2.87;;;1.40;;
13425;SDS011;6785;57.918;12.530;2023-05-29T06:02:09;2.00;;;1.30;;
13425;SDS011;6785;57.918;12.530;2023-05-29T06:04:36;2.80;;;1.13;;
13425;SDS011;6785;57.918;12.530;2023-05-29T06:07:03;2.37;;;1.50;;
13425;SDS011;6785;57.918;12.530;2023-05-29T06:09:31;1.57;;;1.10;;
13425;SDS011;6785;57.918;12.530;2023-05-29T06:11:58;4.03;;;1.40;;
13425;SDS011;6785;57.918;12.530;2023-05-29T06:14:25;4.93;;;1.40;;
13425;SDS011;6785;57.918;12.530;2023-05-29T06:16:52;4.13;;;1.57;;
13425;SDS011;6785;57.918;12.530;2023-05-29T06:19:20;2.13;;;1.40;;
13425;SDS011;6785;57.918;12.530;2023-05-29T06:21:47;2.47;;;1.20;;
13425;SDS011;6785;57.918;12.530;2023-05-29T06:24:14;2.67;;;1.23;;
13425;SDS011;6785;57.918;12.530;2023-05-29T06:26:40;1.30;;;1.10;;
13425;SDS011;6785;57.918;12.530;2023-05-29T06:29:07;2.00;;;1.30;;
13425;SDS011;6785;57.918;12.530;2023-05-29T06:31:34;1.30;;;1.10;;
13425;SDS011;6785;57.918;12.530;2023-05-29T06:34:01;2.53;;;1.00;;
13425;SDS011;6785;57.918;12.530;2023-05-29T06:36:29;2.20;;;1.30;;
13425;SDS011;6785;57.918;12.530;2023-05-29T06:38:57;2.33;;;1.20;;
13425;SDS011;6785;57.918;12.530;2023-05-29T06:41:24;4.87;;;1.47;;
13425;SDS011;6785;57.918;12.530;2023-05-29T06:43:51;2.33;;;1.27;;
13425;SDS011;6785;57.918;12.530;2023-05-29T06:46:17;2.40;;;1.27;;
13425;SDS011;6785;57.918;12.530;2023-05-29T06:48:44;1.20;;;1.10;;
13425;SDS011;6785;57.918;12.530;2023-05-29T06:51:11;4.53;;;1.17;;
13425;SDS011;6785;57.918;12.530;2023-05-29T06:53:39;2.70;;;1.30;;
13425;SDS011;6785;57.918;12.530;2023-05-29T06:56:06;1.20;;;1.10;;
13425;SDS011;6785;57.918;12.530;2023-05-29T06:58:33;2.37;;;1.30;;
13425;SDS011;6785;57.918;12.530;2023-05-29T07:01:00;3.07;;;1.50;;
13425;SDS011;6785;57.918;12.530;2023-05-29T07:03:27;6.63;;;1.60;;
13425;SDS011;6785;57.918;12.530;2023-05-29T07:05:54;1.67;;;1.40;;
13425;SDS011;6785;57.918;12.530;2023-05-29T07:08:22;3.00;;;1.33;;
13425;SDS011;6785;57.918;12.530;2023-05-29T07:10:50;2.47;;;1.20;;
13425;SDS011;6785;57.918;12.530;2023-05-29T07:13:17;1.30;;;1.20;;
13425;SDS011;6785;57.918;12.530;2023-05-29T07:15:43;5.03;;;1.30;;
13425;SDS011;6785;57.918;12.530;2023-05-29T07:18:10;1.67;;;1.20;;
13425;SDS011;6785;57.918;12.530;2023-05-29T07:20:38;1.27;;;1.17;;
13425;SDS011;6785;57.918;12.530;2023-05-29T07:23:04;1.30;;;1.20;;
13425;SDS011;6785;57.918;12.530;2023-05-29T07:25:31;1.20;;;1.10;;
13425;SDS011;6785;57.918;12.530;2023-05-29T07:27:59;1.90;;;1.10;;
13425;SDS011;6785;57.918;12.530;2023-05-29T07:30:26;2.83;;;1.00;;
13425;SDS011;6785;57.918;12.530;2023-05-29T07:32:53;2.30;;;1.10;;
13425;SDS011;6785;57.918;12.530;2023-05-29T07:35:19;2.67;;;1.27;;
13425;SDS011;6785;57.918;12.530;2023-05-29T07:37:47;1.93;;;1.43;;
13425;SDS011;6785;57.918;12.530;2023-05-29T07:40:14;3.77;;;1.40;;
13425;SDS011;6785;57.918;12.530;2023-05-29T07:42:41;1.37;;;0.90;;
13425;SDS011;6785;57.918;12.530;2023-05-29T07:45:09;1.23;;;1.13;;
13425;SDS011;6785;57.918;12.530;2023-05-29T07:47:36;4.33;;;1.40;;
13425;SDS011;6785;57.918;12.530;2023-05-29T07:50:03;2.57;;;1.20;;
13425;SDS011;6785;57.918;12.530;2023-05-29T07:52:31;2.47;;;1.40;;
13425;SDS011;6785;57.918;12.530;2023-05-29T07:54:58;1.43;;;1.10;;
13425;SDS011;6785;57.918;12.530;2023-05-29T07:57:26;1.53;;;1.00;;
13425;SDS011;6785;57.918;12.530;2023-05-29T07:59:53;1.70;;;1.20;;
13425;SDS011;6785;57.918;12.530;2023-05-29T08:02:22;2.00;;;1.33;;
13425;SDS011;6785;57.918;12.530;2023-05-29T08:04:48;1.23;;;1.13;;
13425;SDS011;6785;57.918;12.530;2023-05-29T08:07:15;1.20;;;1.10;;
13425;SDS011;6785;57.918;12.530;2023-05-29T08:09:42;1.30;;;1.00;;
13425;SDS011;6785;57.918;12.530;2023-05-29T08:12:08;1.33;;;1.20;;
13425;SDS011;6785;57.918;12.530;2023-05-29T08:14:35;1.23;;;0.97;;
13425;SDS011;6785;57.918;12.530;2023-05-29T08:17:02;1.90;;;1.30;;
13425;SDS011;6785;57.918;12.530;2023-05-29T08:19:31;1.50;;;1.13;;
13425;SDS011;6785;57.918;12.530;2023-05-29T08:21:57;2.40;;;1.20;;
13425;SDS011;6785;57.918;12.530;2023-05-29T08:24:24;1.70;;;1.00;;
13425;SDS011;6785;57.918;12.530;2023-05-29T08:26:52;1.13;;;0.70;;
13425;SDS011;6785;57.918;12.530;2023-05-29T08:29:19;1.47;;;0.97;;
13425;SDS011;6785;57.918;12.530;2023-05-29T08:31:46;1.00;;;0.90;;
13425;SDS011;6785;57.918;12.530;2023-05-29T08:34:13;4.33;;;1.13;;
13425;SDS011;6785;57.918;12.530;2023-05-29T08:36:41;3.33;;;1.20;;
13425;SDS011;6785;57.918;12.530;2023-05-29T08:39:08;1.60;;;0.80;;
13425;SDS011;6785;57.918;12.530;2023-05-29T08:41:37;1.00;;;0.83;;
13425;SDS011;6785;57.918;12.530;2023-05-29T08:44:11;0.83;;;0.83;;
13425;SDS011;6785;57.918;12.530;2023-05-29T08:46:40;1.10;;;0.97;;
13425;SDS011;6785;57.918;12.530;2023-05-29T08:49:07;0.90;;;0.90;;
13425;SDS011;6785;57.918;12.530;2023-05-29T08:51:36;1.87;;;1.07;;
13425;SDS011;6785;57.918;12.530;2023-05-29T08:54:09;2.00;;;1.20;;
13425;SDS011;6785;57.918;12.530;2023-05-29T08:56:37;1.50;;;0.90;;
13425;SDS011;6785;57.918;12.530;2023-05-29T08:59:04;1.73;;;1.10;;
13425;SDS011;6785;57.918;12.530;2023-05-29T09:01:33;1.17;;;1.07;;
13425;SDS011;6785;57.918;12.530;2023-05-29T09:04:01;1.07;;;1.03;;
13425;SDS011;6785;57.918;12.530;2023-05-29T09:06:28;1.30;;;0.90;;
13425;SDS011;6785;57.918;12.530;2023-05-29T09:08:55;1.27;;;1.00;;
13425;SDS011;6785;57.918;12.530;2023-05-29T09:11:24;3.47;;;1.20;;
13425;SDS011;6785;57.918;12.530;2023-05-29T09:13:51;1.77;;;1.10;;
13425;SDS011;6785;57.918;12.530;2023-05-29T09:16:18;1.00;;;0.97;;
13425;SDS011;6785;57.918;12.530;2023-05-29T09:18:45;1.67;;;0.97;;
13425;SDS011;6785;57.918;12.530;2023-05-29T09:21:17;1.33;;;1.13;;
13425;SDS011;6785;57.918;12.530;2023-05-29T09:23:52;3.30;;;1.03;;
13425;SDS011;6785;57.918;12.530;2023-05-29T09:26:20;0.93;;;0.90;;
13425;SDS011;6785;57.918;12.530;2023-05-29T09:28:49;1.83;;;1.20;;
13425;SDS011;6785;57.918;12.530;2023-05-29T09:31:16;1.03;;;1.00;;
13425;SDS011;6785;57.918;12.530;2023-05-29T09:33:47;2.53;;;0.90;;
13425;SDS011;6785;57.918;12.530;2023-05-29T09:36:19;1.47;;;1.13;;
13425;SDS011;6785;57.918;12.530;2023-05-29T09:38:47;1.40;;;1.10;;
13425;SDS011;6785;57.918;12.530;2023-05-29T09:41:14;2.70;;;1.37;;
13425;SDS011;6785;57.918;12.530;2023-05-29T09:43:48;1.67;;;1.10;;
13425;SDS011;6785;57.918;12.530;2023-05-29T09:46:15;2.20;;;1.13;;
13425;SDS011;6785;57.918;12.530;2023-05-29T09:48:43;1.43;;;1.00;;
13425;SDS011;6785;57.918;12.530;2023-05-29T09:51:18;2.07;;;1.20;;
13425;SDS011;6785;57.918;12.530;2023-05-29T09:53:47;1.10;;;1.00;;
13425;SDS011;6785;57.918;12.530;2023-05-29T09:56:15;3.03;;;1.27;;
13425;SDS011;6785;57.918;12.530;2023-05-29T09:58:42;1.27;;;1.00;;
13425;SDS011;6785;57.918;12.530;2023-05-29T10:01:13;2.63;;;1.20;;
13425;SDS011;6785;57.918;12.530;2023-05-29T10:03:40;1.40;;;1.30;;
13425;SDS011;6785;57.918;12.530;2023-05-29T10:06:08;1.13;;;1.03;;
13425;SDS011;6785;57.918;12.530;2023-05-29T10:08:39;1.90;;;1.13;;
13425;SDS011;6785;57.918;12.530;2023-05-29T10:11:12;0.90;;;0.83;;
13425;SDS011;6785;57.918;12.530;2023-05-29T10:13:42;6.03;;;1.53;;
13425;SDS011;6785;57.918;12.530;2023-05-29T10:16:15;1.83;;;1.30;;
13425;SDS011;6785;57.918;12.530;2023-05-29T10:18:47;1.07;;;0.90;;
13425;SDS011;6785;57.918;12.530;2023-05-29T10:21:19;2.00;;;1.37;;
13425;SDS011;6785;57.918;12.530;2023-05-29T10:23:48;3.37;;;1.17;;
13425;SDS011;6785;57.918;12.530;2023-05-29T10:26:18;1.10;;;1.00;;
13425;SDS011;6785;57.918;12.530;2023-05-29T10:28:50;1.40;;;1.30;;
13425;SDS011;6785;57.918;12.530;2023-05-29T10:31:26;1.40;;;1.07;;
13425;SDS011;6785;57.918;12.530;2023-05-29T10:34:02;0.93;;;0.87;;
13425;SDS011;6785;57.918;12.530;2023-05-29T10:36:42;1.10;;;0.90;;
13425;SDS011;6785;57.918;12.530;2023-05-29T10:39:12;3.90;;;1.10;;
13425;SDS011;6785;57.918;12.530;2023-05-29T10:41:39;1.10;;;1.00;;
13425;SDS011;6785;57.918;12.530;2023-05-29T10:47:10;2.03;;;1.37;;
13425;SDS011;6785;57.918;12.530;2023-05-29T10:49:37;1.30;;;1.20;;
13425;SDS011;6785;57.918;12.530;2023-05-29T10:52:04;1.10;;;1.00;;
13425;SDS011;6785;57.918;12.530;2023-05-29T10:54:41;3.47;;;1.20;;
13425;SDS011;6785;57.918;12.530;2023-05-29T10:57:17;2.60;;;1.37;;
13425;SDS011;6785;57.918;12.530;2023-05-29T10:59:46;1.47;;;1.17;;
13425;SDS011;6785;57.918;12.530;2023-05-29T11:02:18;1.67;;;1.20;;
13425;SDS011;6785;57.918;12.530;2023-05-29T11:07:55;1.80;;;1.00;;
13425;SDS011;6785;57.918;12.530;2023-05-29T11:13:10;2.50;;;1.37;;
13425;SDS011;6785;57.918;12.530;2023-05-29T11:15:48;0.97;;;0.83;;
13425;SDS011;6785;57.918;12.530;2023-05-29T11:18:32;1.30;;;1.20;;
13425;SDS011;6785;57.918;12.530;2023-05-29T11:21:05;1.10;;;1.07;;
13425;SDS011;6785;57.918;12.530;2023-05-29T11:23:55;3.10;;;1.10;;
13425;SDS011;6785;57.918;12.530;2023-05-29T11:26:25;1.20;;;1.10;;
13425;SDS011;6785;57.918;12.530;2023-05-29T11:28:56;0.90;;;0.90;;
13425;SDS011;6785;57.918;12.530;2023-05-29T11:31:24;1.13;;;0.90;;
13425;SDS011;6785;57.918;12.530;2023-05-29T11:33:54;2.93;;;1.30;;
13425;SDS011;6785;57.918;12.530;2023-05-29T11:36:25;1.27;;;1.17;;
13425;SDS011;6785;57.918;12.530;2023-05-29T11:38:52;3.27;;;1.40;;
13425;SDS011;6785;57.918;12.530;2023-05-29T11:41:19;3.50;;;1.50;;
13425;SDS011;6785;57.918;12.530;2023-05-29T11:43:55;1.60;;;1.17;;
13425;SDS011;6785;57.918;12.530;2023-05-29T11:46:23;3.20;;;1.23;;
13425;SDS011;6785;57.918;12.530;2023-05-29T11:48:51;1.97;;;1.20;;
13425;SDS011;6785;57.918;12.530;2023-05-29T11:51:19;1.87;;;1.40;;
13425;SDS011;6785;57.918;12.530;2023-05-29T11:53:46;1.00;;;1.00;;
13425;SDS011;6785;57.918;12.530;2023-05-29T11:56:14;1.40;;;1.10;;
13425;SDS011;6785;57.918;12.530;2023-05-29T11:58:41;1.30;;;1.20;;
13425;SDS011;6785;57.918;12.530;2023-05-29T12:01:09;2.67;;;1.30;;
13425;SDS011;6785;57.918;12.530;2023-05-29T12:03:39;1.00;;;1.00;;
13425;SDS011;6785;57.918;12.530;2023-05-29T12:06:08;1.60;;;1.13;;
13425;SDS011;6785;57.918;12.530;2023-05-29T12:08:36;2.57;;;1.27;;
13425;SDS011;6785;57.918;12.530;2023-05-29T12:11:03;2.47;;;1.10;;
13425;SDS011;6785;57.918;12.530;2023-05-29T12:13:30;1.57;;;1.10;;
13425;SDS011;6785;57.918;12.530;2023-05-29T12:15:59;3.10;;;1.10;;
13425;SDS011;6785;57.918;12.530;2023-05-29T12:18:27;1.20;;;1.10;;
13425;SDS011;6785;57.918;12.530;2023-05-29T12:20:57;1.43;;;1.33;;
13425;SDS011;6785;57.918;12.530;2023-05-29T12:23:26;3.20;;;1.20;;
13425;SDS011;6785;57.918;12.530;2023-05-29T12:25:54;1.90;;;1.10;;
13425;SDS011;6785;57.918;12.530;2023-05-29T12:28:21;3.27;;;1.30;;
13425;SDS011;6785;57.918;12.530;2023-05-29T12:30:48;1.07;;;1.00;;
13425;SDS011;6785;57.918;12.530;2023-05-29T12:33:25;5.30;;;1.33;;
13425;SDS011;6785;57.918;12.530;2023-05-29T12:35:54;1.00;;;1.00;;
13425;SDS011;6785;57.918;12.530;2023-05-29T12:38:28;2.43;;;1.20;;
13425;SDS011;6785;57.918;12.530;2023-05-29T12:40:55;1.40;;;1.30;;
13425;SDS011;6785;57.918;12.530;2023-05-29T12:43:22;1.20;;;1.10;;
13425;SDS011;6785;57.918;12.530;2023-05-29T12:45:53;1.23;;;1.10;;
13425;SDS011;6785;57.918;12.530;2023-05-29T12:48:25;3.97;;;1.40;;
13425;SDS011;6785;57.918;12.530;2023-05-29T12:50:53;1.67;;;1.17;;
13425;SDS011;6785;57.918;12.530;2023-05-29T12:53:19;3.27;;;1.10;;
13425;SDS011;6785;57.918;12.530;2023-05-29T12:55:47;1.13;;;1.03;;
13425;SDS011;6785;57.918;12.530;2023-05-29T12:58:15;1.40;;;1.30;;
13425;SDS011;6785;57.918;12.530;2023-05-29T13:00:42;0.97;;;0.97;;
13425;SDS011;6785;57.918;12.530;2023-05-29T13:03:10;2.33;;;1.40;;
13425;SDS011;6785;57.918;12.530;2023-05-29T13:05:37;1.67;;;1.30;;
13425;SDS011;6785;57.918;12.530;2023-05-29T13:08:06;1.40;;;1.10;;
13425;SDS011;6785;57.918;12.530;2023-05-29T13:10:33;1.90;;;1.27;;
13425;SDS011;6785;57.918;12.530;2023-05-29T13:13:02;1.73;;;1.10;;
13425;SDS011;6785;57.918;12.530;2023-05-29T13:15:29;1.90;;;1.03;;
13425;SDS011;6785;57.918;12.530;2023-05-29T13:17:57;1.20;;;1.10;;
13425;SDS011;6785;57.918;12.530;2023-05-29T13:20:24;1.97;;;1.40;;
13425;SDS011;6785;57.918;12.530;2023-05-29T13:22:51;1.83;;;1.40;;
13425;SDS011;6785;57.918;12.530;2023-05-29T13:25:19;0.93;;;0.93;;
13425;SDS011;6785;57.918;12.530;2023-05-29T13:27:48;1.83;;;1.27;;
13425;SDS011;6785;57.918;12.530;2023-05-29T13:30:16;0.90;;;0.90;;
13425;SDS011;6785;57.918;12.530;2023-05-29T13:32:43;1.47;;;1.07;;
13425;SDS011;6785;57.918;12.530;2023-05-29T13:35:10;1.10;;;1.00;;
13425;SDS011;6785;57.918;12.530;2023-05-29T13:37:37;1.30;;;1.20;;
13425;SDS011;6785;57.918;12.530;2023-05-29T13:40:05;1.50;;;1.10;;
13425;SDS011;6785;57.918;12.530;2023-05-29T13:42:34;1.27;;;1.13;;
13425;SDS011;6785;57.918;12.530;2023-05-29T13:45:01;1.20;;;1.10;;
13425;SDS011;6785;57.918;12.530;2023-05-29T13:47:29;1.20;;;1.10;;
13425;SDS011;6785;57.918;12.530;2023-05-29T13:49:57;1.10;;;0.90;;
13425;SDS011;6785;57.918;12.530;2023-05-29T13:52:24;1.93;;;1.10;;
13425;SDS011;6785;57.918;12.530;2023-05-29T13:54:51;1.23;;;1.13;;
13425;SDS011;6785;57.918;12.530;2023-05-29T13:57:18;1.07;;;1.00;;
13425;SDS011;6785;57.918;12.530;2023-05-29T13:59:45;1.60;;;1.10;;
13425;SDS011;6785;57.918;12.530;2023-05-29T14:02:11;2.00;;;1.30;;
13425;SDS011;6785;57.918;12.530;2023-05-29T14:04:40;1.00;;;1.00;;
13425;SDS011;6785;57.918;12.530;2023-05-29T14:07:07;1.57;;;1.13;;
13425;SDS011;6785;57.918;12.530;2023-05-29T14:09:34;2.17;;;1.27;;
13425;SDS011;6785;57.918;12.530;2023-05-29T14:12:01;1.23;;;1.00;;
13425;SDS011;6785;57.918;12.530;2023-05-29T14:14:28;1.77;;;1.00;;
13425;SDS011;6785;57.918;12.530;2023-05-29T14:16:54;1.57;;;1.20;;
13425;SDS011;6785;57.918;12.530;2023-05-29T14:19:21;2.80;;;1.30;;
13425;SDS011;6785;57.918;12.530;2023-05-29T14:21:50;1.47;;;1.20;;
13425;SDS011;6785;57.918;12.530;2023-05-29T14:24:17;1.60;;;1.30;;
13425;SDS011;6785;57.918;12.530;2023-05-29T14:26:44;3.07;;;1.40;;
13425;SDS011;6785;57.918;12.530;2023-05-29T14:29:12;2.07;;;1.40;;
13425;SDS011;6785;57.918;12.530;2023-05-29T14:31:39;1.30;;;1.10;;
13425;SDS011;6785;57.918;12.530;2023-05-29T14:34:07;1.20;;;1.10;;
13425;SDS011;6785;57.918;12.530;2023-05-29T14:36:34;1.00;;;1.00;;
13425;SDS011;6785;57.918;12.530;2023-05-29T14:39:03;4.23;;;1.10;;
13425;SDS011;6785;57.918;12.530;2023-05-29T14:41:30;1.17;;;1.07;;
13425;SDS011;6785;57.918;12.530;2023-05-29T14:43:58;1.87;;;1.10;;
13425;SDS011;6785;57.918;12.530;2023-05-29T14:46:25;1.43;;;1.17;;
13425;SDS011;6785;57.918;12.530;2023-05-29T14:48:56;1.07;;;1.00;;
13425;SDS011;6785;57.918;12.530;2023-05-29T14:51:23;2.10;;;1.07;;
13425;SDS011;6785;57.918;12.530;2023-05-29T14:53:50;2.10;;;0.90;;
13425;SDS011;6785;57.918;12.530;2023-05-29T14:56:18;1.30;;;1.20;;
13425;SDS011;6785;57.918;12.530;2023-05-29T14:58:45;1.70;;;1.33;;